Time;durP1;ratioP1;P1;durP2;ratioP2;P2;SDS_P1;SDS_P2;PMS_P1;PMS_P2;Temp;Humidity;BMP_temperature;BMP_pressure;BME280_temperature;BME280_humidity;BME280_pressure;Samples;Min_cycle;Max_cycle;Signal;HPM_P1;HPM_P2
2022/07/21 00:00:13;;;;;;;12.95;5.53;;;21.30;99.90;;;;;;5052805;28;20533;-75
2022/07/21 00:02:38;;;;;;;6.75;4.60;;;21.30;99.90;;;;;;5065774;28;20040;-75
2022/07/21 00:05:04;;;;;;;9.77;5.47;;;21.40;99.90;;;;;;5067883;28;20033;-76
2022/07/21 00:07:30;;;;;;;10.02;5.20;;;21.30;99.90;;;;;;5065014;28;20167;-76
2022/07/21 00:09:56;;;;;;;10.18;5.47;;;21.40;99.90;;;;;;5068081;28;20553;-76
2022/07/21 00:12:21;;;;;;;8.77;4.60;;;21.30;99.90;;;;;;5067020;28;20028;-75
2022/07/21 00:14:47;;;;;;;9.05;4.70;;;21.30;99.90;;;;;;5066853;28;20555;-75
2022/07/21 00:17:13;;;;;;;12.15;4.50;;;21.20;99.90;;;;;;5068036;28;20240;-75
2022/07/21 00:19:38;;;;;;;9.73;5.07;;;21.20;99.90;;;;;;5063187;28;20041;-75
2022/07/21 00:22:04;;;;;;;9.25;6.38;;;21.20;99.90;;;;;;5063977;28;20051;-76
2022/07/21 00:24:29;;;;;;;9.52;5.85;;;21.10;99.90;;;;;;5065999;28;20167;-75
2022/07/21 00:26:55;;;;;;;10.30;6.60;;;21.10;99.90;;;;;;5066148;28;20102;-76
2022/07/21 00:29:21;;;;;;;7.85;5.80;;;21.00;99.90;;;;;;5062266;28;20401;-76
2022/07/21 00:31:46;;;;;;;10.20;6.43;;;21.00;99.90;;;;;;5065986;28;20540;-76
2022/07/21 00:34:12;;;;;;;11.05;6.60;;;21.00;99.90;;;;;;5083108;28;20122;-76
2022/07/21 00:36:38;;;;;;;14.18;6.38;;;20.90;99.90;;;;;;5066551;28;20081;-76
2022/07/21 00:39:03;;;;;;;7.65;6.28;;;20.90;99.90;;;;;;5069208;28;20074;-76
2022/07/21 00:41:29;;;;;;;12.02;6.65;;;20.90;99.90;;;;;;5061953;28;20161;-76
2022/07/21 00:43:54;;;;;;;15.07;7.93;;;20.80;99.90;;;;;;5079114;28;20051;-76
2022/07/21 00:46:21;;;;;;;13.55;7.40;;;20.80;99.90;;;;;;5039777;28;20552;-76
2022/07/21 00:48:46;;;;;;;14.73;7.80;;;20.80;99.90;;;;;;5061304;28;20098;-76
2022/07/21 00:51:12;;;;;;;12.43;7.65;;;20.70;99.90;;;;;;5074627;28;20064;-76
2022/07/21 00:53:38;;;;;;;13.57;8.32;;;20.70;99.90;;;;;;5064538;28;20404;-76
2022/07/21 00:56:04;;;;;;;15.00;8.48;;;20.70;99.90;;;;;;5064790;28;20111;-76
2022/07/21 00:58:30;;;;;;;9.82;7.43;;;20.30;99.90;;;;;;5063207;28;20488;-76
2022/07/21 01:00:56;;;;;;;11.38;7.25;;;20.60;99.90;;;;;;5074695;28;20155;-77
2022/07/21 01:03:21;;;;;;;14.40;7.95;;;20.60;99.90;;;;;;5049462;28;20116;-76
2022/07/21 01:05:47;;;;;;;14.75;7.75;;;20.60;99.90;;;;;;5056625;28;20052;-76
2022/07/21 01:08:14;;;;;;;12.27;7.68;;;20.70;99.90;;;;;;5039745;28;20396;-76
2022/07/21 01:10:40;;;;;;;13.88;7.53;;;20.60;99.90;;;;;;5065820;28;20044;-77
2022/07/21 01:13:06;;;;;;;11.25;7.40;;;20.80;99.90;;;;;;5066660;28;20731;-77
2022/07/21 01:15:32;;;;;;;15.15;6.57;;;20.70;99.90;;;;;;5066452;28;20434;-77
2022/07/21 01:18:01;;;;;;;13.88;7.13;;;20.70;99.90;;;;;;5073413;28;20093;-77
2022/07/21 01:20:31;;;;;;;11.32;7.40;;;20.70;99.90;;;;;;5064073;28;20110;-78
2022/07/21 01:22:57;;;;;;;9.48;6.80;;;20.70;99.90;;;;;;5063119;28;20068;-78
2022/07/21 01:25:23;;;;;;;14.52;7.50;;;20.70;99.90;;;;;;5067434;28;20091;-79
2022/07/21 01:27:49;;;;;;;13.15;6.88;;;20.70;99.90;;;;;;5069530;28;20044;-80
2022/07/21 01:30:15;;;;;;;12.43;6.63;;;20.70;99.90;;;;;;5071953;28;20040;-80
2022/07/21 01:32:41;;;;;;;7.68;6.82;;;20.70;99.90;;;;;;5066448;28;20139;-77
2022/07/21 01:35:10;;;;;;;13.68;7.60;;;21.20;99.90;;;;;;5064808;28;20084;-78
2022/07/21 01:37:38;;;;;;;10.82;6.82;;;20.70;99.90;;;;;;5058538;28;20131;-77
2022/07/21 01:42:51;;;;;;;11.45;7.65;;;20.60;99.90;;;;;;5064733;28;20056;-79
2022/07/21 01:45:20;;;;;;;11.30;8.23;;;20.80;99.90;;;;;;5060245;28;20340;-79
2022/07/21 01:47:48;;;;;;;13.55;6.90;;;20.50;99.90;;;;;;5059653;28;20395;-79
2022/07/21 01:50:16;;;;;;;9.77;7.38;;;20.50;99.90;;;;;;5059822;28;20044;-79
2022/07/21 01:52:42;;;;;;;12.27;7.43;;;20.10;99.90;;;;;;5054347;28;20040;-79
2022/07/21 01:55:07;;;;;;;13.77;8.02;;;20.60;99.90;;;;;;5061692;28;20048;-79
2022/07/21 01:57:33;;;;;;;17.77;8.43;;;20.50;99.90;;;;;;5060305;28;20784;-79
2022/07/21 01:59:59;;;;;;;16.90;9.18;;;20.50;99.90;;;;;;5066466;28;20072;-79
2022/07/21 02:02:24;;;;;;;12.05;7.93;;;20.40;99.90;;;;;;5058671;28;20144;-79
2022/07/21 02:04:50;;;;;;;12.13;8.55;;;20.50;99.90;;;;;;5046890;28;20129;-78
2022/07/21 02:07:18;;;;;;;14.57;9.02;;;20.50;99.90;;;;;;5046150;28;20415;-79
2022/07/21 02:09:44;;;;;;;14.02;8.63;;;20.50;99.90;;;;;;5064234;28;20044;-79
2022/07/21 02:12:10;;;;;;;14.75;9.38;;;20.50;99.90;;;;;;5064406;28;20385;-80
2022/07/21 02:14:36;;;;;;;16.42;10.40;;;20.50;99.90;;;;;;5063233;28;20047;-79
2022/07/21 02:17:01;;;;;;;15.32;9.25;;;20.60;99.90;;;;;;5068983;28;20028;-79
2022/07/21 02:19:27;;;;;;;12.55;9.15;;;20.40;99.90;;;;;;5063013;28;20083;-79
2022/07/21 02:21:53;;;;;;;12.45;9.40;;;20.50;99.90;;;;;;5069195;28;20106;-78
2022/07/21 02:24:18;;;;;;;14.07;9.48;;;20.40;99.90;;;;;;5066752;28;20029;-77
2022/07/21 02:26:44;;;;;;;14.23;10.63;;;20.30;99.90;;;;;;5077918;28;20127;-77
2022/07/21 02:29:10;;;;;;;13.25;10.00;;;20.30;99.90;;;;;;5067956;28;20552;-78
2022/07/21 02:31:35;;;;;;;14.82;9.90;;;20.20;99.90;;;;;;5065948;28;20048;-77
2022/07/21 02:34:01;;;;;;;12.40;9.43;;;20.30;99.90;;;;;;5067798;28;20060;-77
2022/07/21 02:36:27;;;;;;;13.73;9.32;;;20.10;99.90;;;;;;5073290;28;20463;-78
2022/07/21 02:38:52;;;;;;;16.73;10.88;;;20.10;99.90;;;;;;5069651;28;20040;-78
2022/07/21 02:41:18;;;;;;;13.55;9.57;;;20.10;99.90;;;;;;5068856;28;20063;-78
2022/07/21 02:43:44;;;;;;;13.65;11.38;;;20.50;99.90;;;;;;5070196;28;20032;-78
2022/07/21 02:46:09;;;;;;;12.00;9.73;;;20.00;99.90;;;;;;5061763;28;20056;-78
2022/07/21 02:48:35;;;;;;;13.52;10.25;;;20.30;99.90;;;;;;5067795;28;20037;-78
2022/07/21 02:51:01;;;;;;;14.20;9.70;;;20.60;99.90;;;;;;5060646;28;20514;-76
2022/07/21 02:53:27;;;;;;;14.05;10.93;;;20.00;99.90;;;;;;5068988;28;20045;-77
2022/07/21 02:55:53;;;;;;;12.63;9.88;;;20.40;99.90;;;;;;5066831;28;20383;-77
2022/07/21 02:58:25;;;;;;;15.50;12.18;;;20.40;99.90;;;;;;5066973;28;20042;-78
2022/07/21 03:00:55;;;;;;;11.50;9.90;;;19.90;99.90;;;;;;5068054;28;20162;-78
2022/07/21 03:03:23;;;;;;;14.85;11.88;;;19.80;99.90;;;;;;5067881;28;20037;-77
2022/07/21 03:05:49;;;;;;;14.77;11.40;;;19.80;99.90;;;;;;5065460;28;20174;-76
2022/07/21 03:08:16;;;;;;;12.93;11.13;;;19.80;99.90;;;;;;5067087;28;20098;-77
2022/07/21 03:10:42;;;;;;;15.02;10.95;;;19.80;99.90;;;;;;5063565;28;20555;-76
2022/07/21 03:13:08;;;;;;;14.23;10.88;;;19.80;99.90;;;;;;5068359;28;20047;-76
2022/07/21 03:15:35;;;;;;;13.32;11.38;;;19.90;99.90;;;;;;5068544;28;20129;-76
2022/07/21 03:18:00;;;;;;;13.23;10.98;;;19.90;99.90;;;;;;5066989;28;20028;-78
2022/07/21 03:20:29;;;;;;;13.63;10.75;;;19.90;99.90;;;;;;5065213;28;20547;-78
2022/07/21 03:22:55;;;;;;;13.98;10.40;;;20.00;99.90;;;;;;5068540;28;20108;-79
2022/07/21 03:25:21;;;;;;;13.18;11.32;;;19.90;99.90;;;;;;5068259;28;20029;-78
2022/07/21 03:27:48;;;;;;;13.80;11.25;;;20.60;99.90;;;;;;5068964;28;20621;-78
2022/07/21 03:30:14;;;;;;;13.68;12.18;;;20.00;99.90;;;;;;5067171;28;20048;-79
2022/07/21 03:32:40;;;;;;;12.38;10.90;;;20.00;99.90;;;;;;5068372;28;20083;-79
2022/07/21 03:35:10;;;;;;;15.15;12.88;;;20.90;99.90;;;;;;5067173;28;20036;-79
2022/07/21 03:37:49;;;;;;;15.38;12.52;;;20.00;99.90;;;;;;5046816;28;20506;-80
2022/07/21 03:40:28;;;;;;;14.05;11.70;;;20.00;99.90;;;;;;5066507;28;20140;-82
2022/07/21 03:42:59;;;;;;;13.70;11.70;;;20.40;99.90;;;;;;5051436;28;20398;-80
2022/07/21 03:45:27;;;;;;;13.88;12.35;;;20.00;99.90;;;;;;5064596;28;20109;-79
2022/07/21 03:47:52;;;;;;;12.77;11.52;;;20.00;99.90;;;;;;5067274;28;20067;-79
2022/07/21 03:50:18;;;;;;;14.93;13.05;;;20.00;99.90;;;;;;5050541;28;20094;-79
2022/07/21 03:52:45;;;;;;;16.35;12.68;;;20.00;99.90;;;;;;5050114;28;20044;-79
2022/07/21 03:55:14;;;;;;;15.77;11.90;;;20.10;99.90;;;;;;5064295;28;20036;-78
2022/07/21 03:57:53;;;;;;;13.65;12.18;;;20.00;99.90;;;;;;5060154;28;20041;-80
2022/07/21 04:00:40;;;;;;;15.75;12.80;;;20.10;99.90;;;;;;5080458;28;20090;-80
2022/07/21 04:03:06;;;;;;;16.45;12.27;;;20.10;99.90;;;;;;5068072;28;20082;-77
2022/07/21 04:05:33;;;;;;;15.68;13.02;;;20.10;99.90;;;;;;5062163;28;20068;-77
2022/07/21 04:07:59;;;;;;;18.85;15.32;;;20.10;99.90;;;;;;5059891;28;20033;-79
2022/07/21 04:10:28;;;;;;;16.15;14.05;;;20.10;99.90;;;;;;5068627;22;20689;-78
2022/07/21 04:12:55;;;;;;;17.50;13.82;;;20.10;99.90;;;;;;5024884;28;20544;-78
2022/07/21 04:15:21;;;;;;;14.73;12.90;;;20.10;99.90;;;;;;5028883;28;20421;-78
2022/07/21 04:17:48;;;;;;;17.42;13.50;;;20.90;99.90;;;;;;5025472;28;20374;-79
2022/07/21 04:20:15;;;;;;;17.75;14.90;;;20.10;99.90;;;;;;5009260;28;20492;-79
2022/07/21 04:22:48;;;;;;;16.15;14.55;;;20.10;99.90;;;;;;5026162;28;20049;-77
2022/07/21 04:25:15;;;;;;;17.33;15.43;;;20.00;99.90;;;;;;5011153;28;20068;-78
2022/07/21 04:27:42;;;;;;;19.92;17.90;;;20.10;99.90;;;;;;5026327;28;20574;-79
2022/07/21 04:30:10;;;;;;;22.25;17.17;;;20.00;99.90;;;;;;4990320;28;20079;-78
2022/07/21 04:35:04;;;;;;;18.80;16.90;;;20.00;99.90;;;;;;5090095;23;20126;-76
2022/07/21 04:37:30;;;;;;;19.50;17.25;;;20.00;99.90;;;;;;5067956;28;20044;-76
2022/07/21 04:39:55;;;;;;;21.27;19.13;;;19.90;99.90;;;;;;5053657;28;20454;-78
2022/07/21 04:42:21;;;;;;;23.30;19.45;;;20.40;99.90;;;;;;5056173;28;20335;-77
2022/07/21 04:44:47;;;;;;;19.92;17.83;;;19.80;99.90;;;;;;5073468;28;20170;-78
2022/07/21 04:47:12;;;;;;;20.90;18.90;;;19.80;99.90;;;;;;5069518;28;20087;-77
2022/07/21 04:49:38;;;;;;;23.35;20.02;;;19.80;99.90;;;;;;5069035;28;20053;-79
2022/07/21 04:52:07;;;;;;;19.90;17.90;;;19.80;99.90;;;;;;5059255;28;20129;-79
2022/07/21 04:54:33;;;;;;;21.65;18.80;;;19.70;99.90;;;;;;5071426;28;20048;-77
2022/07/21 04:56:59;;;;;;;19.45;17.60;;;19.80;99.90;;;;;;5077796;28;20032;-77
2022/07/21 04:59:25;;;;;;;21.60;19.45;;;19.70;99.90;;;;;;5074270;28;20410;-79
2022/07/21 05:01:50;;;;;;;23.80;20.75;;;19.80;99.90;;;;;;5066080;28;20032;-79
2022/07/21 05:04:16;;;;;;;21.75;19.13;;;20.00;99.90;;;;;;5059917;28;20481;-78
2022/07/21 05:06:42;;;;;;;19.77;17.77;;;19.50;99.90;;;;;;5067953;28;20500;-78
2022/07/21 05:09:08;;;;;;;22.58;17.75;;;19.70;99.90;;;;;;5058173;28;20468;-77
2022/07/21 05:11:34;;;;;;;20.45;18.45;;;19.70;99.90;;;;;;5063779;28;20533;-85
2022/07/21 05:14:00;;;;;;;23.23;20.33;;;19.60;99.90;;;;;;5061204;28;20049;-83
2022/07/21 05:16:26;;;;;;;21.15;18.75;;;19.70;99.90;;;;;;5073885;28;20041;-83
2022/07/21 05:18:52;;;;;;;22.77;20.58;;;20.10;99.90;;;;;;5067804;28;20127;-84
2022/07/21 05:21:18;;;;;;;23.20;18.17;;;19.60;99.90;;;;;;5050867;28;20103;-83
2022/07/21 05:23:46;;;;;;;22.02;19.33;;;19.70;99.90;;;;;;5066368;28;20036;-86
2022/07/21 05:26:13;;;;;;;23.15;20.70;;;19.50;99.90;;;;;;5071146;28;20036;-85
2022/07/21 05:28:39;;;;;;;20.15;18.10;;;18.80;99.90;;;;;;5067251;28;20044;-81
2022/07/21 05:31:08;;;;;;;23.90;19.67;;;20.50;99.90;;;;;;5074375;28;20123;-83
2022/07/21 05:33:34;;;;;;;23.38;20.25;;;19.50;99.90;;;;;;5080222;28;20063;-82
2022/07/21 05:36:00;;;;;;;18.80;16.85;;;19.60;99.90;;;;;;5074356;28;20036;-84
2022/07/21 05:38:28;;;;;;;24.35;19.13;;;19.40;99.90;;;;;;5058657;28;20037;-84
2022/07/21 05:40:54;;;;;;;21.15;19.05;;;19.60;99.90;;;;;;5062570;28;20402;-83
2022/07/21 05:43:22;;;;;;;22.00;19.73;;;19.40;99.90;;;;;;5062914;28;20112;-82
2022/07/21 05:45:48;;;;;;;22.13;19.25;;;19.60;99.90;;;;;;5068530;28;20082;-82
2022/07/21 05:48:15;;;;;;;24.65;19.48;;;18.30;99.90;;;;;;5059682;28;20045;-82
2022/07/21 05:50:40;;;;;;;21.13;18.45;;;20.30;99.90;;;;;;5041609;28;20095;-84
2022/07/21 05:53:06;;;;;;;21.83;19.58;;;19.90;99.90;;;;;;5062056;28;20056;-87
2022/07/21 05:55:32;;;;;;;20.77;18.83;;;19.90;99.90;;;;;;5065615;28;20045;-84
2022/07/21 05:58:00;;;;;;;23.67;20.35;;;19.20;99.90;;;;;;5065266;28;20488;-85
2022/07/21 06:00:26;;;;;;;21.77;19.52;;;20.20;99.90;;;;;;5062312;28;20041;-83
2022/07/21 06:02:52;;;;;;;21.58;18.88;;;19.10;99.90;;;;;;5068105;28;20462;-82
2022/07/21 06:05:17;;;;;;;23.85;20.60;;;19.10;99.90;;;;;;5069326;28;20036;-82
2022/07/21 06:07:43;;;;;;;27.17;22.90;;;19.20;99.90;;;;;;5067282;28;20052;-82
2022/07/21 06:10:12;;;;;;;21.33;19.25;;;18.60;99.90;;;;;;5066588;28;20416;-75
2022/07/21 06:12:38;;;;;;;22.75;20.30;;;19.20;99.90;;;;;;5068935;28;20693;-80
2022/07/21 06:15:04;;;;;;;20.75;18.55;;;19.20;99.90;;;;;;5073220;28;20038;-81
2022/07/21 06:17:31;;;;;;;20.02;18.02;;;19.20;99.90;;;;;;5066127;28;20488;-77
2022/07/21 06:19:58;;;;;;;28.75;21.15;;;19.30;99.90;;;;;;5076222;28;20040;-80
2022/07/21 06:22:24;;;;;;;22.30;20.02;;;19.30;99.90;;;;;;5071117;28;20559;-81
2022/07/21 06:24:50;;;;;;;23.42;21.10;;;19.30;99.90;;;;;;5068477;28;20098;-82
2022/07/21 06:27:16;;;;;;;28.23;23.42;;;19.30;99.90;;;;;;5067317;28;20797;-81
2022/07/21 06:29:41;;;;;;;24.38;21.95;;;19.30;99.90;;;;;;5074670;28;20050;-80
2022/07/21 06:32:07;;;;;;;25.83;22.00;;;19.20;99.90;;;;;;5078718;28;20131;-80
2022/07/21 06:34:33;;;;;;;25.17;20.70;;;19.10;99.90;;;;;;5068243;28;20058;-84
2022/07/21 06:36:58;;;;;;;23.15;19.40;;;19.20;99.90;;;;;;5049551;28;20052;-78
2022/07/21 06:39:24;;;;;;;28.20;21.08;;;20.10;99.90;;;;;;5071129;28;20102;-81
2022/07/21 06:41:50;;;;;;;27.05;21.17;;;19.20;99.90;;;;;;5081944;28;20419;-80
2022/07/21 06:44:15;;;;;;;24.10;21.50;;;19.30;99.90;;;;;;5075985;28;20032;-80
2022/07/21 06:46:41;;;;;;;26.85;22.73;;;19.60;99.90;;;;;;5066473;28;20040;-80
2022/07/21 06:49:07;;;;;;;21.20;19.00;;;19.40;99.90;;;;;;5069594;28;20024;-80
2022/07/21 06:51:32;;;;;;;24.90;19.65;;;19.40;99.90;;;;;;5068719;28;20484;-79
2022/07/21 06:53:58;;;;;;;22.58;20.40;;;19.40;99.90;;;;;;5070278;28;20039;-82
2022/07/21 06:56:24;;;;;;;24.33;21.70;;;19.50;99.90;;;;;;5077413;28;20415;-77
2022/07/21 06:58:55;;;;;;;22.75;20.35;;;19.80;99.90;;;;;;5070678;28;20056;-80
2022/07/21 07:01:21;;;;;;;24.80;22.25;;;19.60;99.90;;;;;;5077300;28;20072;-79
2022/07/21 07:03:49;;;;;;;27.60;23.52;;;19.70;99.90;;;;;;5073462;28;20076;-81
2022/07/21 07:06:15;;;;;;;31.38;28.17;;;19.70;99.90;;;;;;5070289;28;20037;-80
2022/07/21 07:08:41;;;;;;;24.20;21.75;;;19.70;99.90;;;;;;5068800;28;20512;-81
2022/07/21 07:11:07;;;;;;;24.02;21.65;;;19.70;99.90;;;;;;5067362;28;20180;-77
2022/07/21 07:13:33;;;;;;;25.42;22.88;;;19.80;99.90;;;;;;5066320;28;20094;-80
2022/07/21 07:15:59;;;;;;;27.25;24.58;;;19.80;99.90;;;;;;5067291;28;20488;-81
2022/07/21 07:18:25;;;;;;;26.13;23.42;;;20.60;99.90;;;;;;5067400;28;20043;-81
2022/07/21 07:20:51;;;;;;;26.08;23.45;;;19.80;99.90;;;;;;4369886;28;10000712;-76
2022/07/21 07:23:17;;;;;;;28.77;26.08;;;19.80;99.90;;;;;;5058376;28;20123;-77
2022/07/21 07:25:43;;;;;;;26.52;23.92;;;19.80;99.90;;;;;;5051006;28;20086;-78
2022/07/21 07:28:09;;;;;;;30.75;27.85;;;19.90;99.90;;;;;;5069455;28;20039;-78
2022/07/21 07:30:35;;;;;;;28.13;25.35;;;20.10;99.90;;;;;;5056743;28;20045;-79
2022/07/21 07:33:01;;;;;;;28.08;25.23;;;19.80;99.90;;;;;;5067446;28;20129;-81
2022/07/21 07:35:27;;;;;;;27.33;24.67;;;20.40;99.90;;;;;;5070219;28;20507;-78
2022/07/21 07:37:53;;;;;;;26.65;24.05;;;19.80;99.90;;;;;;5051300;28;20066;-78
2022/07/21 07:40:21;;;;;;;27.58;24.75;;;19.80;99.90;;;;;;5047342;28;20055;-77
2022/07/21 07:42:47;;;;;;;28.70;26.00;;;19.80;99.90;;;;;;5049470;28;20048;-80
2022/07/21 07:45:13;;;;;;;25.30;22.75;;;19.70;99.90;;;;;;5073762;28;20462;-78
2022/07/21 07:47:42;;;;;;;25.92;23.23;;;19.80;99.90;;;;;;5064129;28;20048;-79
2022/07/21 07:50:10;;;;;;;25.45;23.02;;;19.70;99.90;;;;;;5065302;28;20067;-78
2022/07/21 07:52:37;;;;;;;28.02;23.42;;;19.70;99.90;;;;;;5075784;28;20102;-79
2022/07/21 07:55:06;;;;;;;25.25;22.77;;;19.70;99.90;;;;;;5069693;28;20311;-77
2022/07/21 07:57:32;;;;;;;25.92;23.33;;;19.70;99.90;;;;;;5069001;28;20381;-78
2022/07/21 07:59:58;;;;;;;25.77;23.13;;;19.70;99.90;;;;;;5069168;28;20037;-77
2022/07/21 08:02:24;;;;;;;28.00;25.38;;;19.90;99.90;;;;;;5066814;28;20040;-80
2022/07/21 08:04:49;;;;;;;26.77;24.25;;;19.60;99.90;;;;;;5049668;28;20044;-79
2022/07/21 08:07:15;;;;;;;24.65;22.23;;;19.60;99.90;;;;;;5064198;28;20033;-81
2022/07/21 08:09:40;;;;;;;24.58;22.08;;;19.60;99.90;;;;;;5065225;28;20124;-81
2022/07/21 08:12:07;;;;;;;25.90;23.15;;;19.70;99.90;;;;;;5071921;28;20072;-79
2022/07/21 08:14:33;;;;;;;26.38;23.63;;;19.80;99.90;;;;;;5069972;28;20450;-79
2022/07/21 08:16:59;;;;;;;24.23;21.63;;;19.80;99.90;;;;;;5050810;28;20044;-81
2022/07/21 08:19:26;;;;;;;26.02;23.45;;;19.90;99.90;;;;;;5065974;28;20052;-80
2022/07/21 08:21:53;;;;;;;26.20;23.70;;;19.50;99.90;;;;;;5062581;28;20036;-79
2022/07/21 08:24:19;;;;;;;25.98;23.27;;;19.90;99.90;;;;;;5074338;28;20710;-80
2022/07/21 08:26:45;;;;;;;27.75;24.70;;;19.90;99.90;;;;;;5065223;28;20131;-81
2022/07/21 08:29:11;;;;;;;25.75;23.08;;;20.00;99.90;;;;;;5062104;28;20097;-79
2022/07/21 08:31:36;;;;;;;28.50;25.58;;;19.90;99.90;;;;;;5045330;28;20040;-81
2022/07/21 08:34:02;;;;;;;31.90;28.63;;;19.90;99.90;;;;;;5068930;28;20131;-81
2022/07/21 08:36:28;;;;;;;29.63;26.88;;;20.10;99.90;;;;;;5068954;28;20048;-78
2022/07/21 08:38:53;;;;;;;30.83;27.65;;;19.80;99.90;;;;;;5069310;28;20059;-77
2022/07/21 08:41:19;;;;;;;31.98;28.75;;;19.80;99.90;;;;;;5070709;28;20041;-78
2022/07/21 08:43:47;;;;;;;33.13;29.80;;;19.90;99.90;;;;;;5052313;28;20044;-80
2022/07/21 08:46:18;;;;;;;37.55;32.78;;;20.00;99.90;;;;;;5056127;28;20105;-81
2022/07/21 08:48:46;;;;;;;32.58;29.55;;;19.90;99.90;;;;;;5066723;28;20048;-83
2022/07/21 08:51:15;;;;;;;34.38;30.75;;;19.90;99.90;;;;;;5064593;28;20044;-84
2022/07/21 08:53:43;;;;;;;36.33;32.30;;;19.90;99.90;;;;;;5072049;28;20036;-77
2022/07/21 08:56:08;;;;;;;36.80;33.13;;;19.90;99.90;;;;;;5075313;28;20055;-77
2022/07/21 08:58:35;;;;;;;36.40;32.83;;;19.90;99.90;;;;;;5074898;28;20036;-82
2022/07/21 09:01:02;;;;;;;35.28;31.73;;;19.90;99.90;;;;;;5068391;28;20097;-81
2022/07/21 09:03:29;;;;;;;39.08;34.95;;;20.40;99.90;;;;;;5075742;28;20032;-78
2022/07/21 09:06:02;;;;;;;35.63;31.92;;;20.00;99.90;;;;;;5074968;28;20040;-79
2022/07/21 09:08:36;;;;;;;40.85;36.55;;;20.00;99.90;;;;;;5066773;28;20041;-78
2022/07/21 09:11:26;;;;;;;43.55;39.28;;;20.00;99.90;;;;;;5074228;28;20055;-80
2022/07/21 09:14:13;;;;;;;43.55;37.97;;;20.10;99.90;;;;;;5071416;28;20514;-76
2022/07/21 09:16:47;;;;;;;45.40;39.50;;;20.50;99.90;;;;;;5067073;28;20355;-80
2022/07/21 09:19:31;;;;;;;43.25;38.58;;;20.10;99.90;;;;;;5062253;28;20472;-79
2022/07/21 09:22:00;;;;;;;43.72;39.03;;;20.80;99.90;;;;;;5070679;28;20430;-80
2022/07/21 09:24:34;;;;;;;45.28;40.47;;;20.20;99.90;;;;;;5075760;28;20391;-79
2022/07/21 09:27:16;;;;;;;45.05;40.17;;;20.30;99.90;;;;;;5068059;28;20431;-82
2022/07/21 09:29:52;;;;;;;49.08;41.20;;;20.30;99.90;;;;;;5060491;28;20071;-84
2022/07/21 09:32:26;;;;;;;48.47;43.28;;;20.30;99.90;;;;;;5070277;28;20524;-82
2022/07/21 09:34:59;;;;;;;48.08;42.88;;;19.80;99.90;;;;;;5075853;28;20064;-81
2022/07/21 09:37:35;;;;;;;48.65;42.92;;;20.30;99.90;;;;;;5066771;28;20149;-79
2022/07/21 09:40:10;;;;;;;51.42;44.08;;;20.80;99.90;;;;;;5067938;28;20051;-82
2022/07/21 09:42:52;;;;;;;47.95;43.08;;;20.30;99.90;;;;;;5068053;28;20167;-81
2022/07/21 09:45:20;;;;;;;45.92;40.97;;;20.20;99.90;;;;;;5085568;28;20263;-81
2022/07/21 09:47:50;;;;;;;46.30;41.47;;;20.90;99.90;;;;;;5063369;28;20076;-77
2022/07/21 09:50:25;;;;;;;47.38;42.47;;;20.20;99.90;;;;;;5072956;28;20048;-79
2022/07/21 09:52:54;;;;;;;44.78;39.72;;;20.20;99.90;;;;;;5064308;28;20335;-85
2022/07/21 09:55:20;;;;;;;48.30;40.22;;;20.20;99.90;;;;;;5068270;28;20535;-84
2022/07/21 09:57:46;;;;;;;45.08;40.25;;;20.20;99.90;;;;;;5076606;28;20044;-83
2022/07/21 10:00:20;;;;;;;46.58;41.85;;;20.60;99.90;;;;;;5067941;28;20056;-85
2022/07/21 10:02:49;;;;;;;45.15;40.70;;;20.20;99.90;;;;;;5064337;28;20044;-82
2022/07/21 10:05:21;;;;;;;46.75;41.83;;;20.20;99.90;;;;;;5080012;28;20460;-82
2022/07/21 10:07:57;;;;;;;46.65;41.80;;;20.30;99.90;;;;;;5059229;28;20143;-78
2022/07/21 10:10:25;;;;;;;42.97;38.70;;;20.70;99.90;;;;;;5057823;28;20040;-83
2022/07/21 10:12:51;;;;;;;45.20;40.55;;;20.20;99.90;;;;;;5057377;28;20048;-81
2022/07/21 10:15:20;;;;;;;47.17;42.10;;;20.20;99.90;;;;;;5066969;28;20041;-80
2022/07/21 10:17:51;;;;;;;45.85;38.67;;;20.30;99.90;;;;;;5066999;28;20048;-83
2022/07/21 10:21:42;;;;;;;43.83;39.13;;;20.20;99.90;;;;;;5072307;27;1252402;-82
2022/07/21 10:24:10;;;;;;;;;;;20.30;99.90;;;;;;5085155;28;20293;-78
2022/07/21 10:26:36;;;;;;;46.15;41.15;;;20.30;99.90;;;;;;5084395;28;19928;-82
2022/07/21 10:29:02;;;;;;;44.05;39.47;;;20.20;99.90;;;;;;5098518;28;20038;-79
2022/07/21 10:31:28;;;;;;;47.10;42.13;;;21.10;99.90;;;;;;5100597;28;20043;-77
2022/07/21 10:33:56;;;;;;;46.75;41.28;;;20.30;99.90;;;;;;5099319;28;20394;-80
2022/07/21 10:36:28;;;;;;;46.60;41.00;;;20.30;99.90;;;;;;5085446;28;20491;-80
2022/07/21 10:39:09;;;;;;;45.03;40.10;;;20.30;99.90;;;;;;5095363;28;20036;-80
2022/07/21 10:41:40;;;;;;;45.63;40.83;;;20.30;99.90;;;;;;5098249;28;20074;-84
2022/07/21 10:44:28;;;;;;;44.83;40.08;;;20.50;99.90;;;;;;5096826;28;20043;-83
2022/07/21 10:47:23;;;;;;;44.15;39.65;;;20.30;99.90;;;;;;5085324;28;20134;-81
2022/07/21 10:50:00;;;;;;;44.38;39.78;;;20.30;99.90;;;;;;5087184;28;20041;-82
2022/07/21 10:52:34;;;;;;;43.88;39.00;;;20.30;99.90;;;;;;5114827;28;20040;-80
2022/07/21 10:55:28;;;;;;;42.67;38.17;;;20.40;99.90;;;;;;5117189;28;20514;-80
2022/07/21 10:58:15;;;;;;;38.90;34.88;;;20.40;99.90;;;;;;5117366;28;20088;-79
2022/07/21 11:01:00;;;;;;;36.28;32.45;;;20.50;99.90;;;;;;5111696;28;20407;-82
2022/07/21 11:03:31;;;;;;;34.92;31.13;;;21.50;99.90;;;;;;5117573;28;20376;-81
2022/07/21 11:06:06;;;;;;;34.05;30.67;;;21.10;99.90;;;;;;5098935;28;20065;-81
2022/07/21 11:08:42;;;;;;;34.65;31.35;;;20.70;99.90;;;;;;5116139;28;20036;-79
2022/07/21 11:11:10;;;;;;;34.42;28.92;;;20.80;99.90;;;;;;5120109;28;20058;-78
2022/07/21 11:14:15;;;;;;;30.50;27.20;;;21.00;99.90;;;;;;5100576;28;20048;-80
2022/07/21 11:16:52;;;;;;;26.23;21.52;;;21.10;99.90;;;;;;5112491;28;20056;-82
2022/07/21 11:19:42;;;;;;;26.30;23.60;;;21.20;99.90;;;;;;5116967;28;20044;-81
2022/07/21 11:22:17;;;;;;;27.27;19.98;;;21.50;99.90;;;;;;5103752;28;20055;-80
2022/07/21 11:24:46;;;;;;;24.25;21.73;;;21.40;99.90;;;;;;5104701;28;20043;-82
2022/07/21 11:27:15;;;;;;;21.90;19.77;;;21.40;99.90;;;;;;5076292;28;20059;-79
2022/07/21 11:29:43;;;;;;;22.67;20.63;;;21.40;99.90;;;;;;5098128;28;20096;-80
2022/07/21 11:32:10;;;;;;;18.38;16.60;;;21.40;99.90;;;;;;5088158;28;20480;-78
2022/07/21 11:34:42;;;;;;;19.88;17.83;;;21.50;99.90;;;;;;5112658;28;20479;-81
2022/07/21 11:37:08;;;;;;;17.67;16.00;;;21.50;99.90;;;;;;5107929;28;20050;-84
2022/07/21 11:39:35;;;;;;;17.05;15.45;;;21.40;99.90;;;;;;5063664;28;20048;-83
2022/07/21 11:42:08;;;;;;;18.80;17.05;;;21.40;99.90;;;;;;5101679;28;20487;-75
2022/07/21 11:44:35;;;;;;;20.55;18.65;;;21.30;99.90;;;;;;5084568;28;20727;-79
2022/07/21 11:47:03;;;;;;;25.33;22.88;;;21.60;99.90;;;;;;5104848;28;20040;-80
2022/07/21 11:49:31;;;;;;;22.42;20.33;;;21.30;99.90;;;;;;5106477;28;20047;-77
2022/07/21 11:52:04;;;;;;;23.40;20.85;;;21.30;99.90;;;;;;5103746;28;20043;-78
2022/07/21 11:54:42;;;;;;;17.90;16.23;;;21.30;99.90;;;;;;5087675;28;20052;-77
2022/07/21 11:57:08;;;;;;;17.95;16.35;;;21.30;99.90;;;;;;5107456;28;20039;-81
2022/07/21 11:59:36;;;;;;;18.15;16.55;;;21.70;99.90;;;;;;5101524;28;20475;-81
2022/07/21 12:02:21;;;;;;;18.92;17.13;;;21.40;99.90;;;;;;5105524;28;20047;-80
2022/07/21 12:04:58;;;;;;;18.77;16.77;;;21.40;99.90;;;;;;5087329;28;20039;-80
2022/07/21 12:07:36;;;;;;;17.08;15.32;;;21.50;99.90;;;;;;5090400;28;20044;-80
2022/07/21 12:10:08;;;;;;;16.67;15.05;;;21.60;99.90;;;;;;5098725;28;20098;-77
2022/07/21 12:12:43;;;;;;;16.40;14.70;;;21.60;99.90;;;;;;5087005;28;20067;-79
2022/07/21 12:15:33;;;;;;;19.95;18.02;;;21.60;99.90;;;;;;5087847;28;20043;-78
2022/07/21 12:18:07;;;;;;;17.08;15.45;;;21.50;99.90;;;;;;5105788;28;20096;-76
2022/07/21 12:20:40;;;;;;;14.48;13.15;;;21.70;99.90;;;;;;5078764;28;20055;-78
2022/07/21 12:23:22;;;;;;;12.10;11.07;;;21.60;99.90;;;;;;5106820;28;20055;-77
2022/07/21 12:25:52;;;;;;;12.85;11.43;;;21.50;99.90;;;;;;5084665;28;20040;-75
2022/07/21 12:28:20;;;;;;;12.65;11.60;;;21.60;99.90;;;;;;5084264;28;20048;-77
2022/07/21 12:30:51;;;;;;;13.73;12.40;;;21.40;99.90;;;;;;5080350;28;20052;-78
2022/07/21 12:33:30;;;;;;;13.32;12.13;;;21.40;99.90;;;;;;5083920;28;20180;-77
2022/07/21 12:36:05;;;;;;;11.90;10.80;;;21.40;99.90;;;;;;5106856;28;20050;-78
2022/07/21 12:38:38;;;;;;;11.88;10.55;;;22.00;99.90;;;;;;5103038;28;20139;-75
2022/07/21 12:41:03;;;;;;;12.05;10.95;;;21.40;99.90;;;;;;5106681;28;20048;-76
2022/07/21 12:43:29;;;;;;;11.43;10.27;;;21.40;99.90;;;;;;5083767;28;20499;-73